Time;durP1;ratioP1;P1;durP2;ratioP2;P2;SDS_P1;SDS_P2;PMS_P1;PMS_P2;Temp;Humidity;BMP_temperature;BMP_pressure;BME280_temperature;BME280_humidity;BME280_pressure;Samples;Min_cycle;Max_cycle;Signal;HPM_P1;HPM_P2
2023/06/21 00:01:51;;;;;;;;;;;;;;;;;;;;;
2023/06/21 00:04:36;;;;;;;;;;;;;;;;;;;;;
2023/06/21 00:07:11;;;;;;;6.55;5.93;;;;;;;18.69;100.00;101155.63;4892191;29;20104;-96
2023/06/21 00:09:45;;;;;;;5.60;5.00;;;;;;;18.66;100.00;101150.38;4882468;29;20097;-96
2023/06/21 00:12:26;;;;;;;6.57;5.85;;;;;;;18.64;100.00;101153.00;4880395;29;20033;-96
2023/06/21 00:15:32;;;;;;;6.63;5.88;;;;;;;18.59;100.00;101160.94;4881211;29;20037;-96
2023/06/21 00:17:57;;;;;;;6.43;5.78;;;;;;;18.54;100.00;101164.50;4866488;23;20513;-59
2023/06/21 00:20:23;;;;;;;6.60;6.00;;;;;;;18.53;100.00;101170.66;4842368;29;20029;-59
2023/06/21 00:22:55;;;;;;;7.18;6.47;;;;;;;18.46;100.00;101166.28;4841917;29;20030;-58
2023/06/21 00:25:23;;;;;;;6.85;6.25;;;;;;;18.45;100.00;101173.31;4850889;29;20033;-59
2023/06/21 00:27:49;;;;;;;7.00;6.30;;;;;;;18.42;100.00;101168.03;4842777;29;20463;-59
2023/06/21 00:30:14;;;;;;;6.30;5.70;;;;;;;18.42;100.00;101158.38;4844680;29;20608;-58
2023/06/21 00:32:39;;;;;;;6.40;5.80;;;;;;;18.39;100.00;101155.75;4843538;29;20482;-59
2023/06/21 00:35:05;;;;;;;6.50;5.90;;;;;;;18.40;100.00;101159.25;4841993;29;20041;-58
2023/06/21 00:37:31;;;;;;;8.40;6.50;;;;;;;18.38;100.00;101155.78;4840788;29;20124;-59
2023/06/21 00:39:56;;;;;;;6.93;6.32;;;;;;;18.40;100.00;101160.13;4843020;29;20550;-59
2023/06/21 00:42:23;;;;;;;6.35;5.75;;;;;;;18.43;100.00;101164.53;4842690;29;20033;-58
2023/06/21 00:44:48;;;;;;;6.68;6.03;;;;;;;18.45;100.00;101177.72;4843577;29;20041;-59
2023/06/21 00:47:13;;;;;;;6.57;5.97;;;;;;;18.49;100.00;101176.81;4844076;29;20038;-61
2023/06/21 00:49:39;;;;;;;6.90;6.20;;;;;;;18.41;100.00;101175.09;4840737;29;20054;-61
2023/06/21 00:52:05;;;;;;;6.93;6.32;;;;;;;18.37;100.00;101164.56;4844393;29;20034;-62
2023/06/21 00:54:32;;;;;;;6.97;6.38;;;;;;;18.42;100.00;101171.56;4845383;29;20029;-62
2023/06/21 00:56:58;;;;;;;6.28;5.57;;;;;;;18.43;100.00;101169.81;4845484;29;20122;-62
2023/06/21 00:59:27;;;;;;;6.85;6.25;;;;;;;18.42;100.00;101174.22;4843785;29;20078;-62
2023/06/21 01:01:54;;;;;;;;;;;;;;;18.47;100.00;101178.59;4845799;29;20029;-62
2023/06/21 01:04:21;;;;;;;6.93;6.32;;;;;;;18.41;100.00;101182.13;4844737;29;20532;-62
2023/06/21 01:07:05;;;;;;;7.88;7.10;;;;;;;18.42;100.00;101179.50;4844914;29;20108;-62
2023/06/21 01:09:30;;;;;;;6.70;6.00;;;;;;;18.45;100.00;101182.97;4843750;29;20136;-62
2023/06/21 01:12:26;;;;;;;7.22;6.63;;;;;;;18.43;100.00;101185.63;4842806;29;20144;-62
2023/06/21 01:15:02;;;;;;;6.90;6.30;;;;;;;18.47;100.00;101187.38;4842995;29;20031;-62
2023/06/21 01:17:32;;;;;;;7.15;6.40;;;;;;;18.44;100.00;101184.75;4835555;29;20045;-62
2023/06/21 01:19:58;;;;;;;6.50;5.85;;;;;;;18.46;100.00;101182.97;4834912;29;20518;-62
2023/06/21 01:22:55;;;;;;;7.35;6.40;;;;;;;18.47;100.00;101182.09;4832744;29;20401;-62
2023/06/21 01:25:29;;;;;;;6.70;6.10;;;;;;;18.46;100.00;101179.47;4826738;29;20029;-62
2023/06/21 01:28:00;;;;;;;6.93;6.10;;;;;;;18.47;100.00;101197.06;4835736;29;20045;-62
2023/06/21 01:30:28;;;;;;;7.07;6.47;;;;;;;18.46;100.00;101193.53;4832386;29;20069;-62
2023/06/21 01:32:55;;;;;;;7.32;6.63;;;;;;;18.39;100.00;101199.72;4835145;29;20029;-62
2023/06/21 01:35:22;;;;;;;6.80;6.20;;;;;;;18.40;100.00;101202.34;4834652;29;20374;-62
2023/06/21 01:37:51;;;;;;;7.32;6.60;;;;;;;18.41;100.00;101187.41;4831486;29;20030;-62
2023/06/21 01:40:16;;;;;;;6.82;6.22;;;;;;;18.39;100.00;101192.69;4835318;29;20029;-62
2023/06/21 01:42:41;;;;;;;7.47;6.78;;;;;;;18.39;100.00;101194.44;4835786;29;20038;-62
2023/06/21 01:45:08;;;;;;;6.70;6.10;;;;;;;18.41;100.00;101203.25;4835535;29;20072;-62
2023/06/21 01:47:38;;;;;;;7.20;6.50;;;;;;;18.42;100.00;101203.22;4834294;29;20112;-62
2023/06/21 01:50:05;;;;;;;7.25;6.65;;;;;;;18.39;100.00;101199.72;4833286;29;20037;-62
2023/06/21 01:52:32;;;;;;;7.10;6.40;;;;;;;18.40;100.00;101189.16;4832525;29;20356;-62
2023/06/21 01:54:57;;;;;;;6.80;6.18;;;;;;;18.42;100.00;101197.06;4832603;29;20105;-62
2023/06/21 01:57:25;;;;;;;7.72;6.93;;;;;;;18.40;100.00;101202.34;4833659;29;20116;-62
2023/06/21 01:59:52;;;;;;;7.13;6.53;;;;;;;18.41;100.00;101208.53;4835445;29;20030;-62
2023/06/21 02:02:21;;;;;;;7.25;6.55;;;;;;;18.41;100.00;101208.53;4832723;29;20056;-62
2023/06/21 02:04:47;;;;;;;7.00;6.30;;;;;;;18.38;100.00;101213.81;4832565;29;20036;-62
2023/06/21 02:07:14;;;;;;;7.07;6.47;;;;;;;18.36;100.00;101218.19;4834650;29;20057;-62
2023/06/21 02:09:42;;;;;;;7.63;6.93;;;;;;;18.30;100.00;101228.78;4834248;29;20049;-62
2023/06/21 02:12:08;;;;;;;7.50;6.80;;;;;;;18.25;100.00;101219.09;4833631;29;20120;-62
2023/06/21 02:14:33;;;;;;;7.28;6.57;;;;;;;18.27;100.00;101221.72;4833187;29;20506;-62
2023/06/21 02:16:59;;;;;;;6.93;6.32;;;;;;;18.29;100.00;101216.44;4833443;29;20132;-62
2023/06/21 02:19:24;;;;;;;7.03;6.32;;;;;;;18.26;100.00;101214.69;4831661;29;20590;-62
2023/06/21 02:21:50;;;;;;;7.63;6.93;;;;;;;18.23;100.00;101226.16;4833361;29;20030;-62
2023/06/21 02:24:16;;;;;;;6.90;6.28;;;;;;;18.24;100.00;101232.28;4832760;29;20057;-62
2023/06/21 02:26:41;;;;;;;7.43;6.72;;;;;;;18.19;100.00;101234.03;4831695;29;20371;-62
2023/06/21 02:29:06;;;;;;;8.40;7.65;;;;;;;18.15;100.00;101238.47;4833754;29;20038;-62
2023/06/21 02:31:35;;;;;;;8.07;7.28;;;;;;;18.13;100.00;101244.63;4832596;29;20439;-62
2023/06/21 02:34:00;;;;;;;8.02;7.32;;;;;;;18.11;100.00;101234.06;4829811;29;20179;-62
2023/06/21 02:36:25;;;;;;;7.72;7.03;;;;;;;18.08;100.00;101245.50;4830446;29;20447;-62
2023/06/21 02:38:52;;;;;;;8.15;7.35;;;;;;;18.08;100.00;101257.81;4833129;29;20033;-62
2023/06/21 02:41:17;;;;;;;8.48;7.32;;;;;;;18.02;100.00;101263.09;4830074;29;20059;-62
2023/06/21 02:43:42;;;;;;;8.98;8.18;;;;;;;17.95;100.00;101256.06;4834329;29;20042;-62
2023/06/21 02:46:08;;;;;;;8.32;7.55;;;;;;;17.93;100.00;101257.81;4835339;29;20097;-62
2023/06/21 02:48:33;;;;;;;9.30;7.90;;;;;;;17.92;100.00;101262.22;4833715;29;20410;-62
2023/06/21 02:50:59;;;;;;;8.82;7.72;;;;;;;17.95;100.00;101266.63;4834435;29;20091;-62
2023/06/21 02:53:26;;;;;;;8.38;7.57;;;;;;;17.92;100.00;101267.50;4834624;29;20124;-62
2023/06/21 02:55:51;;;;;;;9.00;8.18;;;;;;;17.94;100.00;101262.22;4834573;29;20098;-62
2023/06/21 02:58:16;;;;;;;8.43;7.68;;;;;;;17.97;100.00;101262.22;4833867;29;20489;-62
2023/06/21 03:00:41;;;;;;;10.05;8.98;;;;;;;17.92;100.00;101270.13;4834410;29;20029;-62
2023/06/21 03:03:10;;;;;;;9.02;8.13;;;;;;;17.89;100.00;101273.59;4834473;29;20534;-62
2023/06/21 03:05:36;;;;;;;8.50;7.70;;;;;;;17.86;100.00;101278.88;4834586;29;20471;-62
2023/06/21 03:08:04;;;;;;;8.43;7.65;;;;;;;17.81;100.00;101285.88;4833699;29;20127;-62
2023/06/21 03:10:32;;;;;;;9.60;8.70;;;;;;;17.79;100.00;101290.28;4833996;29;20074;-62
2023/06/21 03:12:58;;;;;;;9.48;8.57;;;;;;;17.80;100.00;101297.34;4835052;29;20121;-62
2023/06/21 03:15:23;;;;;;;9.55;8.52;;;;;;;17.81;100.00;101296.44;4833325;29;20038;-62
2023/06/21 03:17:48;;;;;;;10.25;9.25;;;;;;;17.82;100.00;101303.47;4832673;29;20418;-62
2023/06/21 03:20:14;;;;;;;9.10;8.20;;;;;;;17.84;100.00;101308.75;4834226;29;20398;-62
2023/06/21 03:22:43;;;;;;;9.32;8.45;;;;;;;17.83;100.00;101315.78;4833929;29;20018;-62
2023/06/21 03:25:13;;;;;;;9.07;8.18;;;;;;;17.84;100.00;101317.56;4848901;29;20036;-62
2023/06/21 03:27:39;;;;;;;8.68;7.55;;;;;;;17.80;100.00;101315.78;4835372;29;20036;-62
2023/06/21 03:30:07;;;;;;;10.02;9.13;;;;;;;17.79;100.00;101323.69;4837746;29;20030;-62
2023/06/21 03:32:32;;;;;;;10.05;9.00;;;;;;;17.76;100.00;101314.00;4838558;29;20587;-62
2023/06/21 03:34:58;;;;;;;8.70;7.90;;;;;;;17.79;100.00;101307.88;4838309;29;20121;-62
2023/06/21 03:37:24;;;;;;;9.98;8.98;;;;;;;17.76;100.00;101314.00;4835647;29;20061;-62
2023/06/21 03:39:50;;;;;;;10.05;9.05;;;;;;;17.76;100.00;101310.50;4837831;29;20082;-62
2023/06/21 03:42:15;;;;;;;10.82;9.75;;;;;;;17.75;100.00;101306.09;4838469;29;20030;-62
2023/06/21 03:44:40;;;;;;;10.38;9.38;;;;;;;17.78;100.00;101306.97;4836754;29;20049;-62
2023/06/21 03:47:06;;;;;;;10.43;9.43;;;;;;;17.78;100.00;101304.34;4836571;29;20033;-62
2023/06/21 03:49:32;;;;;;;10.45;9.45;;;;;;;17.82;100.00;101303.47;4836626;29;20077;-62
2023/06/21 03:51:57;;;;;;;9.50;8.55;;;;;;;17.85;100.00;101303.47;4837519;29;20033;-62
2023/06/21 03:54:23;;;;;;;10.30;9.35;;;;;;;17.89;100.00;101312.28;4837162;29;20508;-62
2023/06/21 03:56:48;;;;;;;9.90;8.90;;;;;;;17.91;100.00;101313.19;4837290;29;20033;-62
2023/06/21 03:59:13;;;;;;;10.48;9.48;;;;;;;17.94;100.00;101317.59;4834449;29;20061;-62
2023/06/21 04:01:38;;;;;;;10.73;9.30;;;;;;;17.98;100.00;101321.97;4837009;29;20044;-62
2023/06/21 04:04:04;;;;;;;10.70;9.65;;;;;;;18.02;100.00;101327.25;4837510;29;20172;-62
2023/06/21 04:06:29;;;;;;;10.70;9.60;;;;;;;18.03;100.00;101330.75;4836668;29;20076;-62
2023/06/21 04:08:54;;;;;;;10.82;9.63;;;;;;;18.00;100.00;101328.13;4834226;29;20045;-62
2023/06/21 04:11:20;;;;;;;11.60;10.45;;;;;;;18.01;100.00;101332.53;4836980;29;21004;-62
2023/06/21 04:13:45;;;;;;;12.60;11.32;;;;;;;17.99;100.00;101331.66;4837607;29;20117;-62
2023/06/21 04:16:10;;;;;;;12.50;11.30;;;;;;;18.01;100.00;101336.03;4835662;29;20528;-62
2023/06/21 04:18:36;;;;;;;12.68;11.38;;;;;;;18.04;100.00;101340.44;4836549;29;20048;-62
2023/06/21 04:21:01;;;;;;;11.90;10.70;;;;;;;18.06;100.00;101350.13;4835667;29;20022;-62
2023/06/21 04:23:26;;;;;;;12.60;11.30;;;;;;;18.07;100.00;101349.25;4837934;29;20506;-62
2023/06/21 04:25:52;;;;;;;12.82;11.52;;;;;;;18.08;100.00;101344.84;4837261;29;20030;-62
2023/06/21 04:28:18;;;;;;;13.55;12.13;;;;;;;18.09;100.00;101349.25;4835887;29;21347;-62
2023/06/21 04:30:43;;;;;;;13.35;11.95;;;;;;;18.07;100.00;101357.16;4832629;29;20655;-62
2023/06/21 04:33:08;;;;;;;12.00;10.80;;;;;;;18.07;100.00;101361.53;4836751;29;20498;-62
2023/06/21 04:35:34;;;;;;;13.60;11.93;;;;;;;18.10;100.00;101355.38;4833970;29;20120;-62
2023/06/21 04:38:00;;;;;;;15.23;13.63;;;;;;;18.10;100.00;101360.66;4836080;29;20504;-62
2023/06/21 04:40:25;;;;;;;17.05;14.25;;;;;;;18.08;100.00;101363.31;4834219;29;20109;-62
2023/06/21 04:42:54;;;;;;;17.13;14.15;;;;;;;18.14;100.00;101379.13;4837629;29;20144;-62
2023/06/21 04:45:20;;;;;;;18.23;14.48;;;;;;;18.18;100.00;101375.63;4837775;29;20074;-62
2023/06/21 04:47:48;;;;;;;16.52;14.68;;;;;;;18.20;100.00;101365.94;4837635;29;20117;-62
2023/06/21 04:50:16;;;;;;;18.25;14.68;;;;;;;18.19;100.00;101366.81;4837959;29;20038;-62
2023/06/21 04:52:48;;;;;;;16.80;13.95;;;;;;;18.17;100.00;101358.00;4838300;29;20037;-62
2023/06/21 04:55:17;;;;;;;19.17;16.05;;;;;;;18.23;100.00;101365.06;4837766;29;20040;-62
2023/06/21 04:57:44;;;;;;;19.15;15.68;;;;;;;18.23;100.00;101359.78;4837956;29;20090;-62
2023/06/21 05:00:09;;;;;;;21.73;17.42;;;;;;;18.28;100.00;101357.13;4837754;29;20061;-62
2023/06/21 05:02:35;;;;;;;20.77;17.50;;;;;;;18.32;100.00;101364.19;4836357;29;20041;-62
2023/06/21 05:05:00;;;;;;;23.38;18.40;;;;;;;18.36;100.00;101368.56;4836858;29;20109;-62
2023/06/21 05:07:25;;;;;;;25.73;19.75;;;;;;;18.40;100.00;101378.25;4828751;29;20052;-62
2023/06/21 05:09:51;;;;;;;25.83;19.83;;;;;;;18.46;100.00;101387.94;4833502;29;20045;-62
2023/06/21 05:12:16;;;;;;;28.75;20.73;;;;;;;18.50;100.00;101384.41;4836981;29;20173;-62
2023/06/21 05:14:41;;;;;;;27.40;20.27;;;;;;;18.52;100.00;101395.84;4835064;29;20607;-62
2023/06/21 05:17:07;;;;;;;34.58;23.60;;;;;;;18.47;100.00;101384.41;4835645;29;20106;-62
2023/06/21 05:19:32;;;;;;;33.65;22.13;;;;;;;18.47;100.00;101393.22;4834378;29;20392;-62
2023/06/21 05:21:57;;;;;;;32.42;21.83;;;;;;;18.50;100.00;101389.69;4834913;29;20102;-62
2023/06/21 05:24:22;;;;;;;39.33;25.50;;;;;;;18.57;100.00;101405.50;4834418;29;20569;-62
2023/06/21 05:26:48;;;;;;;49.30;28.48;;;;;;;18.64;100.00;101400.22;4835263;29;20162;-62
2023/06/21 05:29:13;;;;;;;55.92;30.65;;;;;;;18.66;100.00;101415.19;4835702;29;20030;-62
2023/06/21 05:31:42;;;;;;;61.17;31.75;;;;;;;18.71;100.00;101415.19;4832899;29;20037;-62
2023/06/21 05:34:07;;;;;;;58.67;32.05;;;;;;;18.72;100.00;101409.03;4834880;29;20502;-62
2023/06/21 05:36:33;;;;;;;47.38;28.08;;;;;;;18.73;100.00;101406.38;4834365;29;20034;-62
2023/06/21 05:38:58;;;;;;;44.47;26.67;;;;;;;18.73;100.00;101405.50;4837005;29;20022;-62
2023/06/21 05:41:23;;;;;;;38.35;25.50;;;;;;;18.69;100.00;101414.31;4834669;29;20051;-62
2023/06/21 05:43:49;;;;;;;32.92;22.80;;;;;;;18.69;100.00;101411.66;4835339;29;20057;-62
2023/06/21 05:46:14;;;;;;;34.03;22.73;;;;;;;18.71;100.00;101416.06;4834783;29;20653;-62
2023/06/21 05:48:39;;;;;;;29.17;21.08;;;;;;;18.74;100.00;101413.44;4834746;29;20146;-61
2023/06/21 05:51:04;;;;;;;26.08;19.77;;;;;;;18.76;100.00;101413.44;4834667;29;20482;-61
2023/06/21 05:53:31;;;;;;;26.67;20.67;;;;;;;18.76;100.00;101426.63;4836733;29;20032;-62
2023/06/21 05:55:56;;;;;;;24.30;20.00;;;;;;;18.79;100.00;101429.25;4833446;29;20026;-62
2023/06/21 05:58:22;;;;;;;24.75;20.00;;;;;;;18.82;100.00;101441.59;4836551;29;20505;-61
2023/06/21 06:00:47;;;;;;;23.25;19.38;;;;;;;18.85;100.00;101439.81;4835749;29;20062;-61
2023/06/21 06:03:12;;;;;;;23.33;19.98;;;;;;;18.89;100.00;101443.38;4831803;29;20053;-61
2023/06/21 06:05:38;;;;;;;24.92;19.30;;;;;;;18.92;100.00;101460.06;4833453;29;20398;-62
2023/06/21 06:08:03;;;;;;;23.45;19.23;;;;;;;18.96;100.00;101455.69;4833936;29;20065;-61
2023/06/21 06:10:28;;;;;;;25.50;19.88;;;;;;;18.96;100.00;101454.78;4831024;29;20033;-61
2023/06/21 06:12:54;;;;;;;26.48;20.48;;;;;;;18.98;100.00;101455.69;4831717;29;20463;-61
2023/06/21 06:15:19;;;;;;;25.30;20.55;;;;;;;19.02;100.00;101453.03;4834774;29;20030;-62
2023/06/21 06:17:46;;;;;;;23.60;17.83;;;;;;;19.05;100.00;101454.78;4832906;29;20042;-62
2023/06/21 06:20:12;;;;;;;24.45;19.02;;;;;;;19.04;100.00;101448.59;4832904;29;20030;-62
2023/06/21 06:22:37;;;;;;;24.73;18.25;;;;;;;19.05;100.00;101460.06;4832294;29;20041;-62
2023/06/21 06:25:03;;;;;;;24.83;18.77;;;;;;;19.10;100.00;101463.56;4834482;29;20549;-62
2023/06/21 06:27:29;;;;;;;24.02;18.77;;;;;;;19.13;100.00;101466.19;4834636;29;20022;-62
2023/06/21 06:29:54;;;;;;;23.55;17.70;;;;;;;19.17;100.00;101472.38;4832516;29;20030;-62
2023/06/21 06:32:19;;;;;;;26.40;19.02;;;;;;;19.17;100.00;101478.53;4832961;29;20034;-62
2023/06/21 06:34:44;;;;;;;25.98;18.00;;;;;;;19.24;100.00;101482.03;4833211;29;20501;-62
2023/06/21 06:37:11;;;;;;;27.08;20.00;;;;;;;19.25;100.00;101494.38;4828206;29;20042;-61
2023/06/21 06:39:37;;;;;;;23.63;17.05;;;;;;;19.32;100.00;101489.94;4832477;29;20607;-61
2023/06/21 06:42:02;;;;;;;26.92;18.95;;;;;;;19.34;100.00;101485.56;4857604;23;20077;-96
2023/06/21 06:44:27;;;;;;;24.50;17.05;;;;;;;19.40;100.00;101494.31;4877737;29;20115;-96
2023/06/21 06:46:53;;;;;;;26.25;17.58;;;;;;;19.39;100.00;101491.69;4873210;29;20043;-96
2023/06/21 06:49:24;;;;;;;27.83;16.48;;;;;;;19.49;100.00;101500.47;4869826;29;20585;-96
2023/06/21 06:51:49;;;;;;;23.48;16.77;;;;;;;19.52;100.00;101503.09;4868837;29;20041;-96
2023/06/21 06:54:15;;;;;;;24.70;16.02;;;;;;;19.56;100.00;101510.16;4878050;29;20383;-96
2023/06/21 06:56:43;;;;;;;23.55;16.77;;;;;;;19.58;100.00;101517.19;4875936;29;20032;-96
2023/06/21 06:59:17;;;;;;;19.88;13.35;;;;;;;19.63;94.80;101514.53;4876729;29;20032;-96
2023/06/21 07:01:48;;;;;;;23.42;15.43;;;;;;;19.64;98.37;101518.94;4871363;29;20475;-96
2023/06/21 07:04:14;;;;;;;27.25;16.88;;;;;;;19.70;99.33;101526.84;4877421;29;20066;-96
2023/06/21 07:06:41;;;;;;;22.90;14.75;;;;;;;19.71;96.90;101527.72;4875781;29;20068;-96
2023/06/21 07:09:12;;;;;;;24.13;15.80;;;;;;;19.67;95.71;101532.16;4875462;29;20025;-96
2023/06/21 07:11:37;;;;;;;24.17;16.27;;;;;;;19.58;96.79;101530.41;4876351;29;20092;-96
2023/06/21 07:16:39;;;;;;;23.75;14.40;;;;;;;19.70;94.93;101531.28;4858657;29;20049;-61
2023/06/21 07:19:05;;;;;;;23.58;15.07;;;;;;;19.80;97.06;101525.09;4859855;29;20033;-61
2023/06/21 07:21:30;;;;;;;24.27;15.75;;;;;;;19.89;94.13;101517.13;4860106;29;20033;-61
2023/06/21 07:23:55;;;;;;;24.13;14.63;;;;;;;19.96;95.03;101525.91;4857921;29;20544;-61
2023/06/21 07:26:21;;;;;;;20.48;13.32;;;;;;;20.04;93.57;101528.50;4854183;29;20124;-61
2023/06/21 07:28:46;;;;;;;21.98;13.73;;;;;;;20.13;93.94;101524.06;4860191;29;20065;-61
2023/06/21 07:31:11;;;;;;;22.10;13.75;;;;;;;20.23;91.95;101530.16;4859277;29;20037;-61
2023/06/21 07:33:37;;;;;;;23.73;15.75;;;;;;;20.31;93.46;101519.56;4860829;29;20120;-61
2023/06/21 07:36:02;;;;;;;25.23;16.13;;;;;;;20.37;91.67;101522.16;4860452;29;20041;-61
2023/06/21 07:38:28;;;;;;;24.73;16.77;;;;;;;20.40;92.99;101521.25;4860036;29;20135;-61
2023/06/21 07:40:53;;;;;;;28.85;17.95;;;;;;;20.50;93.81;101528.25;4859785;29;21029;-61
2023/06/21 07:43:19;;;;;;;25.85;18.08;;;;;;;20.60;87.83;101535.25;4855149;29;20033;-61
2023/06/21 07:45:45;;;;;;;27.27;18.55;;;;;;;20.64;89.86;101530.81;4858228;29;20049;-61
2023/06/21 07:48:10;;;;;;;30.45;21.88;;;;;;;20.74;89.54;101535.19;4858721;29;20021;-61
2023/06/21 07:50:36;;;;;;;32.05;22.33;;;;;;;20.87;91.52;101540.38;4858060;29;20017;-61
2023/06/21 07:53:01;;;;;;;30.60;21.00;;;;;;;20.92;87.69;101536.78;4859044;29;20484;-61
2023/06/21 07:55:26;;;;;;;31.02;21.80;;;;;;;20.96;88.59;101542.97;4857204;29;20028;-61
2023/06/21 07:57:52;;;;;;;31.13;22.70;;;;;;;20.99;88.23;101545.56;4858988;29;20029;-62
2023/06/21 08:00:17;;;;;;;29.25;20.85;;;;;;;21.08;87.84;101548.13;4857896;29;20029;-61
2023/06/21 08:02:49;;;;;;;30.60;20.98;;;;;;;21.13;86.07;101540.13;4857563;29;20523;-61
2023/06/21 08:05:15;;;;;;;34.65;22.55;;;;;;;21.25;87.86;101550.63;4858180;29;20041;-62
2023/06/21 08:07:40;;;;;;;33.25;22.05;;;;;;;21.24;86.98;101546.22;4859485;29;20048;-60
2023/06/21 08:12:31;;;;;;;32.05;22.10;;;;;;;21.41;85.34;101566.41;5117899;23;20089;-57
2023/06/21 08:17:31;;;;;;;26.58;18.65;;;;;;;21.71;83.18;101559.94;4907864;23;20078;-57
2023/06/21 08:24:57;;;;;;;33.60;21.42;;;;;;;22.10;80.87;101570.97;5129246;23;20388;-56
2023/06/21 08:27:22;;;;;;;32.03;21.05;;;;;;;22.09;80.87;101570.94;4858642;29;20042;-56
2023/06/21 08:29:47;;;;;;;29.85;20.05;;;;;;;22.27;82.10;101564.53;4978368;23;20069;-57
2023/06/21 08:32:13;;;;;;;27.17;19.70;;;;;;;22.43;78.80;101570.56;5248087;23;20073;-57
2023/06/21 08:34:38;;;;;;;26.25;17.15;;;;;;;22.51;78.83;101566.03;4974133;23;20138;-58
2023/06/21 08:37:04;;;;;;;22.40;15.13;;;;;;;22.61;77.65;101572.94;4831025;29;20378;-57
2023/06/21 08:39:29;;;;;;;19.58;13.68;;;;;;;22.57;73.28;101571.22;5205278;23;20418;-59
2023/06/21 08:47:33;;;;;;;21.77;15.57;;;;;;;22.81;75.50;101566.44;5874711;23;20068;-57
2023/06/21 08:49:59;;;;;;;19.52;13.82;;;;;;;22.90;73.68;101558.34;4862836;29;20858;-57
2023/06/21 08:52:28;;;;;;;16.48;10.00;;;;;;;23.02;71.92;101568.75;4866318;29;20111;-57
2023/06/21 08:54:57;;;;;;;;;;;;;;;23.14;72.46;101574.78;4867547;29;20028;-59
2023/06/21 08:57:23;;;;;;;13.43;9.30;;;;;;;23.21;74.46;101569.34;4866169;29;20375;-58
2023/06/21 09:00:02;;;;;;;14.27;9.73;;;;;;;23.29;72.14;101571.88;4868989;29;20117;-58
2023/06/21 09:02:52;;;;;;;16.75;10.55;;;;;;;23.34;66.77;101563.81;4870835;29;20485;-58
2023/06/21 09:05:53;;;;;;;14.25;9.52;;;;;;;23.49;71.25;101562.63;4882673;29;20029;-57
2023/06/21 09:08:19;;;;;;;21.23;12.13;;;;;;;23.61;70.48;101576.59;4886239;29;20029;-58
2023/06/21 09:10:46;;;;;;;17.50;11.93;;;;;;;23.71;69.97;101571.97;4875308;29;20096;-59
2023/06/21 09:13:13;;;;;;;18.10;12.57;;;;;;;23.86;70.01;101575.25;4870255;29;20096;-60
2023/06/21 09:15:39;;;;;;;20.08;12.32;;;;;;;23.89;67.47;101577.88;4867665;29;20037;-58
2023/06/21 09:18:05;;;;;;;16.52;11.38;;;;;;;23.89;66.75;101577.88;4873822;29;20032;-58
2023/06/21 09:20:31;;;;;;;19.50;11.40;;;;;;;23.95;66.68;101588.38;4872799;29;20029;-58
2023/06/21 09:22:57;;;;;;;19.17;13.07;;;;;;;23.97;66.12;101589.25;4877390;29;20032;-59
2023/06/21 09:25:23;;;;;;;16.83;10.73;;;;;;;24.01;65.63;101593.56;4866848;29;20029;-59
2023/06/21 09:27:48;;;;;;;15.18;8.48;;;;;;;24.06;65.79;101586.38;4865354;29;20116;-58
2023/06/21 09:30:14;;;;;;;11.75;7.28;;;;;;;24.16;65.22;101591.50;4874837;29;20044;-65
2023/06/21 09:32:40;;;;;;;14.35;9.93;;;;;;;24.40;63.50;101590.97;4871005;29;20117;-65
2023/06/21 09:35:06;;;;;;;12.02;7.72;;;;;;;24.31;60.11;101588.50;4863493;29;20405;-66
2023/06/21 09:37:33;;;;;;;12.85;6.45;;;;;;;24.26;60.68;101593.94;4866441;29;20578;-65
2023/06/21 09:39:59;;;;;;;11.20;6.95;;;;;;;24.21;59.13;101598.47;4875700;29;20067;-65
2023/06/21 09:42:26;;;;;;;13.65;7.53;;;;;;;24.18;60.09;101595.88;4871546;29;20390;-67
2023/06/21 09:44:52;;;;;;;11.40;7.35;;;;;;;24.34;60.73;101593.78;4854837;29;20151;-67
2023/06/21 09:47:17;;;;;;;12.73;8.13;;;;;;;24.40;59.65;101598.97;4849916;29;20030;-67
2023/06/21 09:49:47;;;;;;;14.25;8.68;;;;;;;24.30;61.63;101600.97;4852492;29;20049;-67
2023/06/21 09:52:21;;;;;;;12.55;8.52;;;;;;;24.27;64.39;101603.69;4857734;29;20041;-66
2023/06/21 09:54:46;;;;;;;12.68;8.90;;;;;;;24.44;64.39;101599.78;4846886;29;20041;-68
2023/06/21 09:57:12;;;;;;;12.00;7.78;;;;;;;24.56;65.11;101598.63;4848475;29;20502;-68
2023/06/21 09:59:39;;;;;;;8.60;5.18;;;;;;;24.69;59.18;101594.78;4854266;29;20477;-67
2023/06/21 10:02:05;;;;;;;9.68;4.90;;;;;;;24.79;57.75;101595.44;4850529;29;20033;-67
2023/06/21 10:04:40;;;;;;;7.50;4.88;;;;;;;24.88;59.77;101605.88;4848901;29;20490;-68
2023/06/21 10:07:06;;;;;;;9.18;5.30;;;;;;;24.91;54.62;101607.59;4850628;29;20041;-67
2023/06/21 10:09:36;;;;;;;8.00;5.15;;;;;;;24.83;56.76;101618.47;4845129;29;20442;-68
2023/06/21 10:12:01;;;;;;;12.02;6.05;;;;;;;24.85;55.34;101613.09;4849663;29;20030;-68
2023/06/21 10:14:26;;;;;;;10.60;6.90;;;;;;;24.82;57.51;101611.38;4846722;29;20412;-68
2023/06/21 10:16:54;;;;;;;9.15;6.47;;;;;;;24.96;60.64;101619.91;4852344;29;20038;-68
2023/06/21 10:19:24;;;;;;;10.57;7.32;;;;;;;25.07;58.63;101618.78;4852148;29;20042;-69
2023/06/21 10:22:05;;;;;;;10.00;6.90;;;;;;;25.22;57.96;101623.72;4841854;29;20494;-69
2023/06/21 10:24:46;;;;;;;8.90;5.55;;;;;;;25.42;57.84;101631.25;4850587;29;20167;-68
2023/06/21 10:27:12;;;;;;;8.25;5.65;;;;;;;25.57;54.40;101632.66;4855283;29;20037;-69
2023/06/21 10:29:39;;;;;;;9.13;6.07;;;;;;;25.66;53.82;101636.84;4855370;29;20505;-69
2023/06/21 10:32:05;;;;;;;9.85;6.30;;;;;;;25.67;56.81;101641.28;4861984;29;20044;-68
2023/06/21 10:34:47;;;;;;;11.85;7.22;;;;;;;25.75;57.03;101635.72;4859673;29;20025;-70
2023/06/21 10:37:25;;;;;;;9.55;6.30;;;;;;;25.73;57.29;101637.56;4858537;29;20497;-68
2023/06/21 10:39:53;;;;;;;9.93;6.53;;;;;;;25.60;55.76;101653.03;4861555;29;20274;-70
2023/06/21 10:42:20;;;;;;;9.07;5.53;;;;;;;25.33;61.05;101639.47;4854608;29;20113;-68
2023/06/21 10:44:46;;;;;;;9.88;6.45;;;;;;;25.39;58.52;101646.47;4862785;29;20080;-68
2023/06/21 10:47:13;;;;;;;8.63;5.97;;;;;;;25.49;58.85;101639.97;4859903;29;20065;-68
2023/06/21 10:49:39;;;;;;;9.05;5.95;;;;;;;25.51;56.18;101649.69;4860872;29;20045;-69
2023/06/21 10:52:06;;;;;;;7.65;5.75;;;;;;;25.55;54.64;101650.50;4866029;29;20022;-69
2023/06/21 10:54:32;;;;;;;10.15;6.80;;;;;;;25.80;54.49;101656.03;4862956;29;20440;-69
2023/06/21 10:56:58;;;;;;;13.65;7.70;;;;;;;25.88;54.43;101654.97;4852747;29;20528;-66
2023/06/21 10:59:26;;;;;;;9.48;6.88;;;;;;;26.01;58.26;101651.06;4850758;29;20053;-66
2023/06/21 11:01:52;;;;;;;11.45;8.98;;;;;;;26.14;55.24;101649.81;4856598;29;20033;-66
2023/06/21 11:04:17;;;;;;;11.57;9.57;;;;;;;26.19;56.91;101653.22;4855071;29;20056;-67
2023/06/21 11:06:43;;;;;;;10.25;8.63;;;;;;;26.34;55.85;101653.69;4850509;29;20065;-66
2023/06/21 11:09:16;;;;;;;10.93;8.93;;;;;;;26.49;54.69;101665.69;4857141;29;20120;-67
2023/06/21 11:11:50;;;;;;;13.70;9.65;;;;;;;26.55;55.54;101666.41;4848058;29;20040;-66
2023/06/21 11:14:21;;;;;;;11.80;10.05;;;;;;;26.53;51.22;101665.59;4852189;29;20593;-66
2023/06/21 11:16:46;;;;;;;11.73;8.77;;;;;;;26.53;55.13;101656.66;4852601;29;20037;-67
2023/06/21 11:19:13;;;;;;;10.32;9.02;;;;;;;26.69;53.79;101662.47;4853054;29;20367;-67
2023/06/21 11:21:46;;;;;;;8.82;7.93;;;;;;;26.71;52.02;101668.66;4847665;29;20041;-67
2023/06/21 11:24:18;;;;;;;11.82;8.35;;;;;;;26.76;52.36;101656.00;4855331;29;20583;-66
2023/06/21 11:26:55;;;;;;;10.02;8.30;;;;;;;26.86;52.71;101660.13;4856356;29;20086;-67
2023/06/21 11:29:21;;;;;;;10.10;7.53;;;;;;;26.95;52.17;101664.31;4841532;29;20174;-66
2023/06/21 11:31:47;;;;;;;8.93;6.78;;;;;;;26.79;49.95;101661.25;4852725;29;20116;-66
2023/06/21 11:34:23;;;;;;;9.60;7.03;;;;;;;26.47;50.85;101673.75;4854877;29;20549;-66